Andrómeda ‚ÄĒ CTHK ‚ÄĒ position and weather

sailwx.info

Track history (hours):
 
Tides and Currents Weather Stations Pressure Air Temp Water Temp Dewpoint Dewpoint Depression Visibility Wind Speed Wind Dir Waves Ship Positions

Oceanographic research ship Andrómeda (Portugal)

Detailed information on ship capabilities available from University of Delaware's Ocean Information Center.

Last reported at 2019-Oct-17 17:00 UTC. Time now 2019-Oct-17 17:07 UTC.
Position N 37°07' W 008°32'.

Length 32 m; draft 3 m.

Type: Dredging. MMSI: 263139000.

Date/timePositionNaut miles runAvg speedWind from/ knotsBaromVisibWave heightAir tempDewpointWater temp
2019-Oct-17 17:00N 37°07' W 008°32'0 0.0
2019-Oct-17 16:30N 37°07' W 008°32'0 0.0
2019-Oct-17 16:00N 37°07' W 008°32'0 0.0
2019-Oct-17 15:30N 37°07' W 008°32'0 0.0
2019-Oct-17 15:00N 37°07' W 008°32'0 0.0
2019-Oct-17 14:30N 37°07' W 008°32'0 0.0
2019-Oct-17 14:00N 37°07' W 008°32'0 0.0
2019-Oct-17 13:30N 37°07' W 008°32'0 0.0
2019-Oct-17 13:00N 37°07' W 008°32'0 0.0
2019-Oct-17 12:30N 37°07' W 008°32'0 0.0
2019-Oct-17 12:00N 37°07' W 008°32'0 1.0
2019-Oct-17 11:31N 37°07' W 008°32'510.1
2019-Oct-17 11:00N 37°02' W 008°31'611.4
2019-Oct-17 10:31N 36°57' W 008°28'3 5.5
2019-Oct-17 09:59N 36°54' W 008°27'2 5.0
2019-Oct-17 09:30N 36°56' W 008°27'2 4.9
2019-Oct-17 09:00N 36°59' W 008°27'2 4.8
2019-Oct-17 08:30N 37°01' W 008°27'2 4.9
2019-Oct-17 08:00N 37°04' W 008°27'2 3.2
2019-Oct-17 07:31N 37°05' W 008°28'4 7.7
2019-Oct-17 07:00N 37°07' W 008°32'0 0.1
2019-Oct-17 06:25N 37°07' W 008°32'0 0.0
2019-Oct-17 05:37N 37°07' W 008°32'0 0.0
2019-Oct-17 05:28N 37°07' W 008°32'0 0.0
2019-Oct-17 04:49N 37°07' W 008°32'0 0.0
2019-Oct-17 04:25N 37°07' W 008°32'0 0.0
2019-Oct-17 03:55N 37°07' W 008°32'0 0.0
2019-Oct-17 03:28N 37°07' W 008°32'0 0.0
2019-Oct-17 02:58N 37°07' W 008°32'0 0.0
2019-Oct-17 02:25N 37°07' W 008°32'0 0.0
2019-Oct-17 01:55N 37°07' W 008°32'0 0.0
2019-Oct-17 01:25N 37°07' W 008°32'0 0.0
2019-Oct-17 00:55N 37°07' W 008°32'0 0.0
2019-Oct-17 00:25N 37°07' W 008°32'0 0.0
2019-Oct-16 23:43N 37°07' W 008°32'0 0.0
2019-Oct-16 23:01N 37°07' W 008°32'0 0.0
2019-Oct-16 22:55N 37°07' W 008°32'0 0.0
2019-Oct-16 22:25N 37°07' W 008°32'0 0.0
2019-Oct-16 21:55N 37°07' W 008°32'0 0.0
2019-Oct-16 21:25N 37°07' W 008°32'0 0.0
2019-Oct-16 20:55N 37°07' W 008°32'0 0.0
2019-Oct-16 20:25N 37°07' W 008°32'0 0.0
2019-Oct-16 19:55N 37°07' W 008°32'0 0.0
2019-Oct-16 18:43N 37°07' W 008°32'0 0.0
2019-Oct-16 18:25N 37°07' W 008°32'1 3.7
2019-Oct-16 18:01N 37°06' W 008°32'510.8
2019-Oct-16 17:31N 37°04' W 008°38'510.8
2019-Oct-16 17:01N 37°02' W 008°45'510.9
2019-Oct-16 16:31N 37°00' W 008°51'510.5
2019-Oct-16 16:00N 36°59' W 008°58'7 3.2
2019-Oct-16 13:50N 36°53' W 008°54'9 4.1
2019-Oct-16 11:44N 36°56' W 008°44'1 4.4
2019-Oct-16 11:30N 36°56' W 008°42'2 4.4
2019-Oct-16 11:00N 36°56' W 008°40'2 4.4
2019-Oct-16 10:30N 36°57' W 008°37'2 4.4
2019-Oct-16 10:00N 36°57' W 008°34'2 4.5
2019-Oct-16 09:30N 36°57' W 008°31'2 4.5
2019-Oct-16 08:57N 36°58' W 008°28'2 3.9
2019-Oct-16 08:31N 36°58' W 008°26'0 0.9
2019-Oct-16 08:01N 36°58' W 008°26'510.9
2019-Oct-16 07:31N 37°03' W 008°30'5 8.5
2019-Oct-16 06:59N 37°07' W 008°32'0 0.0
2019-Oct-16 06:29N 37°07' W 008°32'0 0.0
2019-Oct-16 06:01N 37°07' W 008°32'0 0.0
2019-Oct-16 05:31N 37°07' W 008°32'0 0.0
2019-Oct-16 05:01N 37°07' W 008°32'0 0.0
2019-Oct-16 04:31N 37°07' W 008°32'0 0.0
2019-Oct-16 04:01N 37°07' W 008°32'0 0.0
2019-Oct-16 03:31N 37°07' W 008°32'0 0.0
2019-Oct-16 03:00N 37°07' W 008°32'0 0.0
2019-Oct-16 02:31N 37°07' W 008°32'0 0.0
2019-Oct-16 02:01N 37°07' W 008°32'0 0.0
2019-Oct-16 01:31N 37°07' W 008°32'0 0.0
2019-Oct-16 01:01N 37°07' W 008°32'0 0.0
2019-Oct-16 00:31N 37°07' W 008°32'0 0.0
2019-Oct-16 00:01N 37°07' W 008°32'0 0.0
2019-Oct-15 23:31N 37°07' W 008°32'0 0.0
2019-Oct-15 23:01N 37°07' W 008°32'0 0.0
2019-Oct-15 22:31N 37°07' W 008°32'0 0.0
2019-Oct-15 22:01N 37°07' W 008°32'0 0.0
2019-Oct-15 21:30N 37°07' W 008°32'0 0.0
2019-Oct-15 21:01N 37°07' W 008°32'0 0.0
2019-Oct-15 20:31N 37°07' W 008°32'0 0.0
2019-Oct-15 20:01N 37°07' W 008°32'0 0.0
2019-Oct-15 19:31N 37°07' W 008°32'0 0.0
2019-Oct-15 19:01N 37°07' W 008°32'0 0.0
2019-Oct-15 18:29N 37°07' W 008°32'0 0.0
2019-Oct-15 18:00N 37°07' W 008°32'0 0.0
2019-Oct-15 17:31N 37°07' W 008°32'0 0.0
2019-Oct-15 17:01N 37°07' W 008°32'0 0.0
2019-Oct-15 16:31N 37°07' W 008°32'0 0.0
2019-Oct-15 16:00N 37°07' W 008°32'0 0.0
2019-Oct-15 15:31N 37°07' W 008°32'0 0.0
2019-Oct-15 15:01N 37°07' W 008°32'0 0.0
2019-Oct-15 14:31N 37°07' W 008°32'2 4.5
2019-Oct-15 14:00N 37°05' W 008°32'5 9.7
2019-Oct-15 13:31N 37°05' W 008°26'5 9.9
2019-Oct-15 13:01N 37°04' W 008°20'0 0.6
2019-Oct-15 12:31N 37°04' W 008°20'0 0.6
2019-Oct-15 12:01N 37°03' W 008°20'0 0.4
2019-Oct-15 11:30N 37°03' W 008°20'1 2.6
2019-Oct-15 11:01N 37°04' W 008°20'2 4.8
2019-Oct-15 10:30N 37°04' W 008°23'2 4.0
2019-Oct-15 10:01N 37°04' W 008°26'5 9.9
2019-Oct-15 09:31N 37°06' W 008°32'1 2.1
2019-Oct-15 09:01N 37°06' W 008°33'3 5.2
2019-Oct-15 08:30N 37°06' W 008°36'0 0.1
2019-Oct-15 08:01N 37°06' W 008°36'2 3.0
2019-Oct-15 07:31N 37°06' W 008°34'2 4.9
2019-Oct-15 07:00N 37°07' W 008°32'0 0.1
2019-Oct-15 06:25N 37°07' W 008°32'0 0.0
2019-Oct-15 05:55N 37°07' W 008°32'0 0.0
2019-Oct-15 05:25N 37°07' W 008°32'0 0.0
2019-Oct-15 04:55N 37°07' W 008°32'0 0.0
2019-Oct-15 04:25N 37°07' W 008°32'0 0.0
2019-Oct-15 03:49N 37°07' W 008°32'0 0.0
2019-Oct-15 03:19N 37°07' W 008°32'0 0.0
2019-Oct-15 02:55N 37°07' W 008°32'0 0.0
2019-Oct-15 02:25N 37°07' W 008°32'0 0.0
2019-Oct-15 01:55N 37°07' W 008°32'0 0.0
2019-Oct-15 01:25N 37°07' W 008°32'0 0.0
2019-Oct-15 00:49N 37°07' W 008°32'0 0.0
2019-Oct-15 00:25N 37°07' W 008°32'0 0.0
2019-Oct-14 23:55N 37°07' W 008°32'0 0.0
2019-Oct-14 23:25N 37°07' W 008°32'0 0.0
2019-Oct-14 22:55N 37°07' W 008°32'0 0.0
2019-Oct-14 22:25N 37°07' W 008°32'0 0.0
2019-Oct-14 21:55N 37°07' W 008°32'0 0.0
2019-Oct-14 21:28N 37°07' W 008°32'0 0.0
2019-Oct-14 20:31N 37°07' W 008°32'0 0.0
2019-Oct-14 20:25N 37°07' W 008°32'0 0.0
2019-Oct-14 19:55N 37°07' W 008°32'0 0.0
2019-Oct-14 19:25N 37°07' W 008°32'0 0.0
2019-Oct-14 18:55N 37°07' W 008°32'0 0.0
2019-Oct-14 18:25N 37°07' W 008°32'0 0.0
2019-Oct-14 18:00N 37°07' W 008°32'0 0.0
2019-Oct-14 17:30N 37°07' W 008°32'0 0.0
2019-Oct-14 17:00N 37°07' W 008°32'0 0.0
2019-Oct-14 16:30N 37°07' W 008°32'1 2.4
2019-Oct-14 16:00N 37°06' W 008°32'4 5.8
2019-Oct-14 15:19N 37°05' W 008°27'1 3.3
2019-Oct-14 15:00N 37°04' W 008°26'1 2.9
2019-Oct-14 14:30N 37°04' W 008°24'1 2.8
2019-Oct-14 14:00N 37°04' W 008°22'1 3.0
2019-Oct-14 13:30N 37°04' W 008°20'2 3.7
2019-Oct-14 13:00N 37°02' W 008°20'2 4.4
2019-Oct-14 12:30N 36°59' W 008°20'2 4.4
2019-Oct-14 12:00N 36°57' W 008°20'2 4.5
2019-Oct-14 11:30N 36°55' W 008°20'2 3.2
2019-Oct-14 11:00N 36°55' W 008°18'3 3.1
2019-Oct-14 10:11N 36°57' W 008°17'1 4.3
2019-Oct-14 09:59N 36°58' W 008°17'2 4.3
2019-Oct-14 09:30N 36°60' W 008°17'2 4.3
2019-Oct-14 09:00N 37°02' W 008°17'2 3.6
2019-Oct-14 08:30N 37°04' W 008°17'4 7.6
2019-Oct-14 08:00N 37°04' W 008°22'511.0
2019-Oct-14 07:30N 37°05' W 008°28'4 7.8
2019-Oct-14 07:00N 37°08' W 008°32'0 0.4
2019-Oct-14 06:30N 37°07' W 008°32'0 0.0
2019-Oct-14 06:00N 37°07' W 008°32'0 0.0
2019-Oct-14 05:30N 37°07' W 008°32'0 0.0
2019-Oct-14 04:54N 37°07' W 008°32'0 0.0
2019-Oct-14 04:24N 37°07' W 008°32'0 0.0
2019-Oct-14 04:00N 37°07' W 008°32'0 0.0
2019-Oct-14 03:30N 37°07' W 008°32'0 0.0
2019-Oct-14 02:54N 37°07' W 008°32'0 0.0
2019-Oct-14 02:30N 37°07' W 008°32'0 0.0
2019-Oct-14 01:57N 37°07' W 008°32'0 0.0
2019-Oct-14 01:30N 37°07' W 008°32'0 0.0
2019-Oct-14 01:00N 37°07' W 008°32'0 0.0
2019-Oct-14 00:24N 37°07' W 008°32'0 0.0
2019-Oct-14 00:00N 37°07' W 008°32'0 0.0
2019-Oct-13 23:24N 37°07' W 008°32'0 0.0
2019-Oct-13 22:54N 37°07' W 008°32'0 0.0
2019-Oct-13 22:30N 37°07' W 008°32'0 0.0
2019-Oct-13 22:00N 37°07' W 008°32'0 0.0
2019-Oct-13 21:30N 37°07' W 008°32'0 0.0
2019-Oct-13 21:00N 37°07' W 008°32'0 0.0
2019-Oct-13 20:12N 37°07' W 008°32'0 0.0
2019-Oct-13 19:48N 37°07' W 008°32'0 0.0
2019-Oct-13 19:30N 37°07' W 008°32'0 0.0
2019-Oct-13 19:00N 37°07' W 008°32'0 0.0
2019-Oct-13 18:30N 37°07' W 008°32'0 0.0
2019-Oct-13 18:00N 37°07' W 008°32'0 0.0
2019-Oct-13 17:30N 37°07' W 008°32'0 0.0
2019-Oct-13 17:00N 37°07' W 008°32'0 0.0
2019-Oct-13 16:30N 37°07' W 008°32'0 0.0
2019-Oct-13 16:00N 37°07' W 008°32'0 0.0
2019-Oct-13 15:30N 37°07' W 008°32'0 0.0
2019-Oct-13 14:54N 37°07' W 008°32'0 0.0
2019-Oct-13 14:24N 37°07' W 008°32'0 0.0
2019-Oct-13 14:00N 37°07' W 008°32'0 0.0
2019-Oct-13 13:18N 37°07' W 008°32'0 0.0
2019-Oct-13 13:00N 37°07' W 008°32'0 0.0
2019-Oct-13 12:30N 37°07' W 008°32'0 0.0
2019-Oct-13 12:00N 37°07' W 008°32'0 0.0
2019-Oct-13 11:30N 37°07' W 008°32'0 0.0
2019-Oct-13 11:00N 37°07' W 008°32'0 0.0
2019-Oct-13 10:30N 37°07' W 008°32'0 0.0
2019-Oct-13 10:00N 37°07' W 008°32'0 0.0
2019-Oct-13 09:18N 37°07' W 008°32'0 0.0
2019-Oct-13 08:54N 37°07' W 008°32'0 0.0
2019-Oct-13 08:24N 37°07' W 008°32'0 0.0
2019-Oct-13 07:42N 37°07' W 008°32'0 0.0
2019-Oct-13 07:30N 37°07' W 008°32'0 0.0
2019-Oct-13 07:00N 37°07' W 008°32'0 0.0
2019-Oct-13 06:30N 37°07' W 008°32'0 0.0
2019-Oct-13 06:00N 37°07' W 008°32'0 0.0
2019-Oct-13 05:30N 37°07' W 008°32'0 0.0
2019-Oct-13 05:00N 37°07' W 008°32'0 0.0
2019-Oct-13 04:30N 37°07' W 008°32'0 0.0
2019-Oct-13 03:54N 37°07' W 008°32'0 0.0
2019-Oct-13 03:30N 37°07' W 008°32'0 0.0
2019-Oct-13 03:00N 37°07' W 008°32'0 0.0
2019-Oct-13 02:30N 37°07' W 008°32'0 0.0
2019-Oct-13 02:00N 37°07' W 008°32'0 0.0
2019-Oct-13 01:30N 37°07' W 008°32'0 0.0
2019-Oct-13 01:00N 37°07' W 008°32'0 0.0
2019-Oct-13 00:30N 37°07' W 008°32'0 0.0
2019-Oct-13 00:00N 37°07' W 008°32'0 0.0
2019-Oct-12 23:30N 37°07' W 008°32'0 0.0
2019-Oct-12 22:54N 37°07' W 008°32'0 0.0
2019-Oct-12 22:30N 37°07' W 008°32'0 0.0
2019-Oct-12 21:48N 37°07' W 008°32'0 0.0
2019-Oct-12 21:24N 37°07' W 008°32'0 0.0
2019-Oct-12 21:00N 37°07' W 008°32'0 0.0
2019-Oct-12 20:30N 37°07' W 008°32'0 0.0
2019-Oct-12 19:54N 37°07' W 008°32'0 0.0
2019-Oct-12 19:30N 37°07' W 008°32'0 0.0
2019-Oct-12 19:00N 37°07' W 008°32'0 0.0
2019-Oct-12 18:30N 37°07' W 008°32'0 0.4
2019-Oct-12 18:01N 37°07' W 008°31'5 9.1
2019-Oct-12 17:30N 37°04' W 008°36'510.5
2019-Oct-12 17:00N 37°02' W 008°42'4 8.1
2019-Oct-12 16:30N 36°60' W 008°46'2 3.4
2019-Oct-12 16:00N 36°59' W 008°48'2 4.6
2019-Oct-12 15:30N 36°58' W 008°51'2 4.3
2019-Oct-12 15:00N 36°57' W 008°53'2 4.7
2019-Oct-12 14:30N 36°60' W 008°53'1 1.2
2019-Oct-12 13:50N 36°59' W 008°52'2 4.8
2019-Oct-12 13:24N 36°57' W 008°51'3 4.7
2019-Oct-12 12:40N 36°54' W 008°50'1 4.4
2019-Oct-12 12:30N 36°53' W 008°50'3 3.5
2019-Oct-12 11:32N 36°52' W 008°46'0 4.2
2019-Oct-12 11:30N 36°52' W 008°46'2 4.2
2019-Oct-12 11:01N 36°54' W 008°46'2 3.9
2019-Oct-12 10:30N 36°56' W 008°47'2 4.0
2019-Oct-12 10:00N 36°58' W 008°48'2 4.1
2019-Oct-12 09:30N 36°60' W 008°48'2 4.2
2019-Oct-12 09:00N 37°02' W 008°49'8 7.1
2019-Oct-12 07:56N 37°03' W 008°40'511.2
2019-Oct-12 07:30N 37°05' W 008°34'3 4.2
2019-Oct-12 06:46N 37°07' W 008°32'0 0.0
2019-Oct-12 06:19N 37°07' W 008°32'0 0.0
2019-Oct-12 06:00N 37°07' W 008°32'0 0.0
2019-Oct-12 05:30N 37°07' W 008°32'0 0.0
2019-Oct-12 05:00N 37°07' W 008°32'0 0.0
2019-Oct-12 04:30N 37°07' W 008°32'0 0.0
2019-Oct-12 04:00N 37°07' W 008°32'0 0.0
2019-Oct-12 03:30N 37°07' W 008°32'0 0.0
2019-Oct-12 03:00N 37°07' W 008°32'0 0.0
2019-Oct-12 02:30N 37°07' W 008°32'0 0.0
2019-Oct-12 02:00N 37°07' W 008°32'0 0.0
2019-Oct-12 01:30N 37°07' W 008°32'0 0.0
2019-Oct-12 01:00N 37°07' W 008°32'0 0.0
2019-Oct-12 00:05N 37°07' W 008°32'0 0.0
2019-Oct-11 23:56N 37°07' W 008°32'0 0.0
2019-Oct-11 23:23N 37°07' W 008°32'0 0.0
2019-Oct-11 23:00N 37°07' W 008°32'0 0.0
2019-Oct-11 22:30N 37°07' W 008°32'0 0.0
2019-Oct-11 21:32N 37°07' W 008°32'0 0.0
2019-Oct-11 21:30N 37°07' W 008°32'0 0.0
2019-Oct-11 20:33N 37°07' W 008°32'0 0.0
2019-Oct-11 20:28N 37°07' W 008°32'0 0.0
2019-Oct-11 19:57N 37°07' W 008°32'0 0.0
2019-Oct-11 19:28N 37°07' W 008°32'0 0.0
2019-Oct-11 19:00N 37°07' W 008°32'0 0.0
2019-Oct-11 18:24N 37°07' W 008°32'0 0.0
2019-Oct-11 18:00N 37°07' W 008°32'0 0.0
2019-Oct-11 17:30N 37°07' W 008°32'0 0.0
2019-Oct-11 17:00N 37°07' W 008°32'0 0.0
2019-Oct-11 16:31N 37°07' W 008°32'3 5.3
2019-Oct-11 16:01N 37°05' W 008°34'510.3
2019-Oct-11 15:31N 37°04' W 008°40'4 8.0
2019-Oct-11 15:00N 37°04' W 008°45'1 2.5
2019-Oct-11 14:30N 37°03' W 008°45'2 3.3
2019-Oct-11 14:00N 37°01' W 008°44'1 1.9
2019-Oct-11 13:20N 36°60' W 008°44'1 3.2
2019-Oct-11 12:58N 36°59' W 008°43'2 4.8
2019-Oct-11 12:30N 36°56' W 008°43'2 4.3
2019-Oct-11 12:00N 36°54' W 008°42'2 4.3
2019-Oct-11 11:30N 36°52' W 008°42'2 4.3
2019-Oct-11 10:57N 36°52' W 008°39'2 4.1
2019-Oct-11 10:30N 36°54' W 008°39'2 4.2
2019-Oct-11 10:00N 36°56' W 008°39'2 4.3
2019-Oct-11 09:30N 36°59' W 008°39'2 3.9
2019-Oct-11 09:00N 37°00' W 008°40'2 3.9
2019-Oct-11 08:30N 37°02' W 008°40'2 3.8
2019-Oct-11 08:00N 37°04' W 008°40'4 7.2
2019-Oct-11 07:30N 37°05' W 008°35'4 7.9
2019-Oct-11 07:00N 37°07' W 008°32'0 0.0
2019-Oct-11 06:18N 37°07' W 008°32'0 0.0
2019-Oct-11 05:45N 37°07' W 008°32'0 0.0
2019-Oct-11 04:51N 37°07' W 008°32'0 0.0
2019-Oct-11 04:15N 37°07' W 008°32'0 0.0
2019-Oct-11 03:51N 37°07' W 008°32'0 0.0
2019-Oct-11 03:15N 37°07' W 008°32'0 0.0
2019-Oct-11 02:57N 37°07' W 008°32'0 0.0
2019-Oct-11 02:21N 37°07' W 008°32'0 0.0
2019-Oct-11 01:57N 37°07' W 008°32'0 0.0
2019-Oct-11 01:27N 37°07' W 008°32'0 0.0
2019-Oct-11 00:48N 37°07' W 008°32'0 0.0
2019-Oct-11 00:21N 37°07' W 008°32'0 0.0
2019-Oct-11 00:00N 37°07' W 008°32'0 0.0
2019-Oct-10 23:30N 37°07' W 008°32'0 0.0
2019-Oct-10 22:45N 37°07' W 008°32'0 0.0
2019-Oct-10 22:27N 37°07' W 008°32'0 0.0
2019-Oct-10 21:51N 37°07' W 008°32'0 0.0
2019-Oct-10 21:27N 37°07' W 008°32'0 0.0
2019-Oct-10 20:51N 37°07' W 008°32'0 0.0
2019-Oct-10 20:18N 37°07' W 008°32'0 0.0
2019-Oct-10 19:45N 37°07' W 008°32'0 0.0
2019-Oct-10 19:21N 37°07' W 008°32'0 0.0
2019-Oct-10 18:17N 37°07' W 008°32'1 4.7
2019-Oct-10 18:00N 37°06' W 008°32'4 8.9
2019-Oct-10 17:30N 37°02' W 008°34'3 5.2
2019-Oct-10 16:59N 36°59' W 008°34'2 4.6
2019-Oct-10 16:31N 36°60' W 008°31'2 4.8
2019-Oct-10 16:00N 36°60' W 008°28'2 4.0
2019-Oct-10 15:30N 37°02' W 008°27'2 4.3
2019-Oct-10 15:00N 37°01' W 008°30'2 4.4
2019-Oct-10 14:30N 37°01' W 008°32'2 4.5
2019-Oct-10 14:00N 37°01' W 008°35'2 4.4
2019-Oct-10 13:30N 37°01' W 008°38'2 4.5
2019-Oct-10 13:00N 37°00' W 008°41'2 4.6
2019-Oct-10 12:31N 37°00' W 008°44'2 4.3
2019-Oct-10 12:01N 36°60' W 008°46'2 4.1
2019-Oct-10 11:31N 37°01' W 008°48'7 4.4
2019-Oct-10 09:55N 37°02' W 008°40'3 4.5
2019-Oct-10 09:18N 37°03' W 008°36'1 4.5
2019-Oct-10 09:01N 37°03' W 008°35'2 4.5
2019-Oct-10 08:29N 37°03' W 008°32'2 4.4
2019-Oct-10 07:59N 37°04' W 008°29'1 1.8
2019-Oct-10 07:29N 37°04' W 008°30'4 2.7
2019-Oct-10 06:09N 37°07' W 008°32'0 0.0
2019-Oct-10 05:00N 37°07' W 008°32'0 0.0
2019-Oct-10 03:27N 37°07' W 008°32'0 0.0
2019-Oct-10 02:54N 37°07' W 008°32'0 0.0
2019-Oct-10 01:51N 37°07' W 008°32'0 0.0
2019-Oct-10 01:12N 37°07' W 008°32'0 0.0
2019-Oct-10 00:54N 37°07' W 008°32'0 0.0
2019-Oct-10 00:06N 37°07' W 008°32'0 0.0
2019-Oct-09 23:24N 37°07' W 008°32'0 0.0
2019-Oct-09 22:54N 37°07' W 008°32'0 0.0
2019-Oct-09 22:06N 37°07' W 008°32'0 0.0
2019-Oct-09 21:48N 37°07' W 008°32'0 0.0
2019-Oct-09 21:18N 37°07' W 008°32'0 0.0
2019-Oct-09 20:36N 37°07' W 008°32'0 0.0
2019-Oct-09 20:24N 37°07' W 008°32'0 0.0
2019-Oct-09 20:00N 37°07' W 008°32'0 0.0
2019-Oct-09 19:18N 37°07' W 008°32'0 0.0
2019-Oct-09 19:00N 37°07' W 008°32'0 0.0
2019-Oct-09 18:18N 37°07' W 008°32'0 0.0
2019-Oct-09 18:00N 37°07' W 008°32'0 0.0
2019-Oct-09 17:16N 37°07' W 008°32'1 2.6
2019-Oct-09 17:00N 37°07' W 008°32'4 8.1
2019-Oct-09 16:30N 37°03' W 008°33'4 7.1
2019-Oct-09 16:00N 36°59' W 008°33'2 4.7
2019-Oct-09 15:30N 36°59' W 008°36'3 5.0
2019-Oct-09 14:59N 36°59' W 008°39'2 4.9
2019-Oct-09 14:30N 36°58' W 008°42'2 4.7
2019-Oct-09 14:00N 36°58' W 008°45'2 4.6
2019-Oct-09 13:30N 36°57' W 008°48'2 4.2
2019-Oct-09 13:00N 36°56' W 008°50'2 3.7
2019-Oct-09 12:27N 36°55' W 008°52'1 1.7
2019-Oct-09 12:00N 36°55' W 008°53'3 4.9
2019-Oct-09 11:24N 36°58' W 008°53'2 4.7
2019-Oct-09 11:00N 36°60' W 008°53'2 4.4
2019-Oct-09 10:30N 37°01' W 008°51'7 4.5
2019-Oct-09 08:57N 37°03' W 008°43'2 3.8
2019-Oct-09 08:30N 37°04' W 008°41'3 4.5
2019-Oct-09 07:45N 37°04' W 008°36'311.1
2019-Oct-09 07:28N 37°06' W 008°33'2 3.9
2019-Oct-09 06:56N 37°07' W 008°32'0 0.0
2019-Oct-09 06:26N 37°07' W 008°32'0 0.0
2019-Oct-09 05:53N 37°07' W 008°32'0 0.0
2019-Oct-09 05:26N 37°07' W 008°32'0 0.0
2019-Oct-09 04:32N 37°07' W 008°32'0 0.0
2019-Oct-09 04:02N 37°07' W 008°32'0 0.0
2019-Oct-09 03:38N 37°07' W 008°32'0 0.0
2019-Oct-09 03:20N 37°07' W 008°32'0 0.0
2019-Oct-09 02:50N 37°07' W 008°32'0 0.0
2019-Oct-09 02:26N 37°07' W 008°32'0 0.0
2019-Oct-09 01:56N 37°07' W 008°32'0 0.0
2019-Oct-09 00:50N 37°07' W 008°32'0 0.0
2019-Oct-09 00:30N 37°07' W 008°32'0 0.0
2019-Oct-08 23:56N 37°07' W 008°32'0 0.0
2019-Oct-08 23:26N 37°07' W 008°32'0 0.0
2019-Oct-08 22:47N 37°07' W 008°32'0 0.0
2019-Oct-08 22:26N 37°07' W 008°32'0 0.0
2019-Oct-08 21:44N 37°07' W 008°32'0 0.0
2019-Oct-08 20:39N 37°07' W 008°32'0 0.0
2019-Oct-08 20:27N 37°07' W 008°32'0 0.0
2019-Oct-08 20:00N 37°07' W 008°32'0 0.0
2019-Oct-08 19:31N 37°07' W 008°32'0 0.0
2019-Oct-08 18:52N 37°07' W 008°32'0 0.0
2019-Oct-08 18:21N 37°07' W 008°32'0 0.5
2019-Oct-08 18:00N 37°08' W 008°32'3 6.0
2019-Oct-08 17:30N 37°05' W 008°30'1 2.1
2019-Oct-08 17:00N 37°05' W 008°31'2 4.7
2019-Oct-08 16:30N 37°05' W 008°34'2 4.6
2019-Oct-08 15:58N 37°04' W 008°37'1 2.6
2019-Oct-08 15:28N 37°05' W 008°38'1 2.0
2019-Oct-08 15:01N 37°06' W 008°37'3 4.5
2019-Oct-08 14:26N 37°04' W 008°37'2 4.3
2019-Oct-08 14:00N 37°02' W 008°37'2 4.6
2019-Oct-08 13:30N 36°59' W 008°36'2 4.6
2019-Oct-08 12:58N 36°57' W 008°36'2 4.3
2019-Oct-08 12:30N 36°55' W 008°36'2 3.1
2019-Oct-08 11:54N 36°53' W 008°35'1 1.3
2019-Oct-08 11:30N 36°54' W 008°36'4 4.6
2019-Oct-08 10:31N 36°55' W 008°30'0 1.0
2019-Oct-08 10:31N 36°55' W 008°30'2 3.9
2019-Oct-08 10:00N 36°57' W 008°31'2 4.5
2019-Oct-08 09:30N 36°59' W 008°31'2 4.8
2019-Oct-08 09:01N 37°01' W 008°31'4 4.7
2019-Oct-08 08:11N 37°05' W 008°31'1 4.6
2019-Oct-08 08:00N 37°06' W 008°31'1 0.8
2019-Oct-08 07:02N 37°07' W 008°32'1 0.4
2019-Oct-08 05:43N 37°07' W 008°32'0 0.0
2019-Oct-08 05:25N 37°07' W 008°32'0 0.0
2019-Oct-08 04:55N 37°07' W 008°32'0 0.0
2019-Oct-08 04:25N 37°07' W 008°32'0 0.0
2019-Oct-08 03:55N 37°07' W 008°32'0 0.0
2019-Oct-08 03:25N 37°07' W 008°32'0 0.0
2019-Oct-08 02:58N 37°07' W 008°32'0 0.0
2019-Oct-08 02:25N 37°07' W 008°32'0 0.0
2019-Oct-08 01:58N 37°07' W 008°32'0 0.0
2019-Oct-07 23:49N 37°07' W 008°32'0 0.0
2019-Oct-07 22:44N 37°07' W 008°32'0 0.0
2019-Oct-07 22:04N 37°07' W 008°32'0 0.0
2019-Oct-07 21:46N 37°07' W 008°32'0 0.0
2019-Oct-07 21:22N 37°07' W 008°32'0 0.0
2019-Oct-07 20:04N 37°07' W 008°32'0 0.0
2019-Oct-07 19:55N 37°07' W 008°32'0 0.0
2019-Oct-07 18:58N 37°07' W 008°32'0 0.0
2019-Oct-07 18:30N 37°07' W 008°32'2 5.0
2019-Oct-07 18:00N 37°05' W 008°33'611.6
2019-Oct-07 17:31N 37°03' W 008°39'  
Track history (hours):
 
Tides and Currents Weather Stations Pressure Air Temp Water Temp Dewpoint Dewpoint Depression Visibility Wind Speed Wind Dir Waves Ship Positions

Oceanographic research ship Andrómeda (Portugal)

Detailed information on ship capabilities available from University of Delaware's Ocean Information Center.

Last reported at 2019-Oct-17 17:00 UTC. Time now 2019-Oct-17 17:07 UTC.
Position N 37°07' W 008°32'.

Length 32 m; draft 3 m.

Type: Dredging. MMSI: 263139000.

Date/timePositionNaut miles runAvg speedWind from/ knotsBaromVisibWave heightAir tempDewpointWater temp
2019-Oct-17 17:00N 37°07' W 008°32'0 0.0
2019-Oct-17 16:30N 37°07' W 008°32'0 0.0
2019-Oct-17 16:00N 37°07' W 008°32'0 0.0
2019-Oct-17 15:30N 37°07' W 008°32'0 0.0
2019-Oct-17 15:00N 37°07' W 008°32'0 0.0
2019-Oct-17 14:30N 37°07' W 008°32'0 0.0
2019-Oct-17 14:00N 37°07' W 008°32'0 0.0
2019-Oct-17 13:30N 37°07' W 008°32'0 0.0
2019-Oct-17 13:00N 37°07' W 008°32'0 0.0
2019-Oct-17 12:30N 37°07' W 008°32'0 0.0
2019-Oct-17 12:00N 37°07' W 008°32'0 1.0
2019-Oct-17 11:31N 37°07' W 008°32'510.1
2019-Oct-17 11:00N 37°02' W 008°31'611.4
2019-Oct-17 10:31N 36°57' W 008°28'3 5.5
2019-Oct-17 09:59N 36°54' W 008°27'2 5.0
2019-Oct-17 09:30N 36°56' W 008°27'2 4.9
2019-Oct-17 09:00N 36°59' W 008°27'2 4.8
2019-Oct-17 08:30N 37°01' W 008°27'2 4.9
2019-Oct-17 08:00N 37°04' W 008°27'2 3.2
2019-Oct-17 07:31N 37°05' W 008°28'4 7.7
2019-Oct-17 07:00N 37°07' W 008°32'0 0.1
2019-Oct-17 06:25N 37°07' W 008°32'0 0.0
2019-Oct-17 05:37N 37°07' W 008°32'0 0.0
2019-Oct-17 05:28N 37°07' W 008°32'0 0.0
2019-Oct-17 04:49N 37°07' W 008°32'0 0.0
2019-Oct-17 04:25N 37°07' W 008°32'0 0.0
2019-Oct-17 03:55N 37°07' W 008°32'0 0.0
2019-Oct-17 03:28N 37°07' W 008°32'0 0.0
2019-Oct-17 02:58N 37°07' W 008°32'0 0.0
2019-Oct-17 02:25N 37°07' W 008°32'0 0.0
2019-Oct-17 01:55N 37°07' W 008°32'0 0.0
2019-Oct-17 01:25N 37°07' W 008°32'0 0.0
2019-Oct-17 00:55N 37°07' W 008°32'0 0.0
2019-Oct-17 00:25N 37°07' W 008°32'0 0.0
2019-Oct-16 23:43N 37°07' W 008°32'0 0.0
2019-Oct-16 23:01N 37°07' W 008°32'0 0.0
2019-Oct-16 22:55N 37°07' W 008°32'0 0.0
2019-Oct-16 22:25N 37°07' W 008°32'0 0.0
2019-Oct-16 21:55N 37°07' W 008°32'0 0.0
2019-Oct-16 21:25N 37°07' W 008°32'0 0.0
2019-Oct-16 20:55N 37°07' W 008°32'0 0.0
2019-Oct-16 20:25N 37°07' W 008°32'0 0.0
2019-Oct-16 19:55N 37°07' W 008°32'0 0.0
2019-Oct-16 18:43N 37°07' W 008°32'0 0.0
2019-Oct-16 18:25N 37°07' W 008°32'1 3.7
2019-Oct-16 18:01N 37°06' W 008°32'510.8
2019-Oct-16 17:31N 37°04' W 008°38'510.8
2019-Oct-16 17:01N 37°02' W 008°45'510.9
2019-Oct-16 16:31N 37°00' W 008°51'510.5
2019-Oct-16 16:00N 36°59' W 008°58'7 3.2
2019-Oct-16 13:50N 36°53' W 008°54'9 4.1
2019-Oct-16 11:44N 36°56' W 008°44'1 4.4
2019-Oct-16 11:30N 36°56' W 008°42'2 4.4
2019-Oct-16 11:00N 36°56' W 008°40'2 4.4
2019-Oct-16 10:30N 36°57' W 008°37'2 4.4
2019-Oct-16 10:00N 36°57' W 008°34'2 4.5
2019-Oct-16 09:30N 36°57' W 008°31'2 4.5
2019-Oct-16 08:57N 36°58' W 008°28'2 3.9
2019-Oct-16 08:31N 36°58' W 008°26'0 0.9
2019-Oct-16 08:01N 36°58' W 008°26'510.9
2019-Oct-16 07:31N 37°03' W 008°30'5 8.5
2019-Oct-16 06:59N 37°07' W 008°32'0 0.0
2019-Oct-16 06:29N 37°07' W 008°32'0 0.0
2019-Oct-16 06:01N 37°07' W 008°32'0 0.0
2019-Oct-16 05:31N 37°07' W 008°32'0 0.0
2019-Oct-16 05:01N 37°07' W 008°32'0 0.0
2019-Oct-16 04:31N 37°07' W 008°32'0 0.0
2019-Oct-16 04:01N 37°07' W 008°32'0 0.0
2019-Oct-16 03:31N 37°07' W 008°32'0 0.0
2019-Oct-16 03:00N 37°07' W 008°32'0 0.0
2019-Oct-16 02:31N 37°07' W 008°32'0 0.0
2019-Oct-16 02:01N 37°07' W 008°32'0 0.0
2019-Oct-16 01:31N 37°07' W 008°32'0 0.0
2019-Oct-16 01:01N 37°07' W 008°32'0 0.0
2019-Oct-16 00:31N 37°07' W 008°32'0 0.0
2019-Oct-16 00:01N 37°07' W 008°32'0 0.0
2019-Oct-15 23:31N 37°07' W 008°32'0 0.0
2019-Oct-15 23:01N 37°07' W 008°32'0 0.0
2019-Oct-15 22:31N 37°07' W 008°32'0 0.0
2019-Oct-15 22:01N 37°07' W 008°32'0 0.0
2019-Oct-15 21:30N 37°07' W 008°32'0 0.0
2019-Oct-15 21:01N 37°07' W 008°32'0 0.0
2019-Oct-15 20:31N 37°07' W 008°32'0 0.0
2019-Oct-15 20:01N 37°07' W 008°32'0 0.0
2019-Oct-15 19:31N 37°07' W 008°32'0 0.0
2019-Oct-15 19:01N 37°07' W 008°32'0 0.0
2019-Oct-15 18:29N 37°07' W 008°32'0 0.0
2019-Oct-15 18:00N 37°07' W 008°32'0 0.0
2019-Oct-15 17:31N 37°07' W 008°32'0 0.0
2019-Oct-15 17:01N 37°07' W 008°32'0 0.0
2019-Oct-15 16:31N 37°07' W 008°32'0 0.0
2019-Oct-15 16:00N 37°07' W 008°32'0 0.0
2019-Oct-15 15:31N 37°07' W 008°32'0 0.0
2019-Oct-15 15:01N 37°07' W 008°32'0 0.0
2019-Oct-15 14:31N 37°07' W 008°32'2 4.5
2019-Oct-15 14:00N 37°05' W 008°32'5 9.7
2019-Oct-15 13:31N 37°05' W 008°26'5 9.9
2019-Oct-15 13:01N 37°04' W 008°20'0 0.6
2019-Oct-15 12:31N 37°04' W 008°20'0 0.6
2019-Oct-15 12:01N 37°03' W 008°20'0 0.4
2019-Oct-15 11:30N 37°03' W 008°20'1 2.6
2019-Oct-15 11:01N 37°04' W 008°20'2 4.8
2019-Oct-15 10:30N 37°04' W 008°23'2 4.0
2019-Oct-15 10:01N 37°04' W 008°26'5 9.9
2019-Oct-15 09:31N 37°06' W 008°32'1 2.1
2019-Oct-15 09:01N 37°06' W 008°33'3 5.2
2019-Oct-15 08:30N 37°06' W 008°36'0 0.1
2019-Oct-15 08:01N 37°06' W 008°36'2 3.0
2019-Oct-15 07:31N 37°06' W 008°34'2 4.9
2019-Oct-15 07:00N 37°07' W 008°32'0 0.1
2019-Oct-15 06:25N 37°07' W 008°32'0 0.0
2019-Oct-15 05:55N 37°07' W 008°32'0 0.0
2019-Oct-15 05:25N 37°07' W 008°32'0 0.0
2019-Oct-15 04:55N 37°07' W 008°32'0 0.0
2019-Oct-15 04:25N 37°07' W 008°32'0 0.0
2019-Oct-15 03:49N 37°07' W 008°32'0 0.0
2019-Oct-15 03:19N 37°07' W 008°32'0 0.0
2019-Oct-15 02:55N 37°07' W 008°32'0 0.0
2019-Oct-15 02:25N 37°07' W 008°32'0 0.0
2019-Oct-15 01:55N 37°07' W 008°32'0 0.0
2019-Oct-15 01:25N 37°07' W 008°32'0 0.0
2019-Oct-15 00:49N 37°07' W 008°32'0 0.0
2019-Oct-15 00:25N 37°07' W 008°32'0 0.0
2019-Oct-14 23:55N 37°07' W 008°32'0 0.0
2019-Oct-14 23:25N 37°07' W 008°32'0 0.0
2019-Oct-14 22:55N 37°07' W 008°32'0 0.0
2019-Oct-14 22:25N 37°07' W 008°32'0 0.0
2019-Oct-14 21:55N 37°07' W 008°32'0 0.0
2019-Oct-14 21:28N 37°07' W 008°32'0 0.0
2019-Oct-14 20:31N 37°07' W 008°32'0 0.0
2019-Oct-14 20:25N 37°07' W 008°32'0 0.0
2019-Oct-14 19:55N 37°07' W 008°32'0 0.0
2019-Oct-14 19:25N 37°07' W 008°32'0 0.0
2019-Oct-14 18:55N 37°07' W 008°32'0 0.0
2019-Oct-14 18:25N 37°07' W 008°32'0 0.0
2019-Oct-14 18:00N 37°07' W 008°32'0 0.0
2019-Oct-14 17:30N 37°07' W 008°32'0 0.0
2019-Oct-14 17:00N 37°07' W 008°32'0 0.0
2019-Oct-14 16:30N 37°07' W 008°32'1 2.4
2019-Oct-14 16:00N 37°06' W 008°32'4 5.8
2019-Oct-14 15:19N 37°05' W 008°27'1 3.3
2019-Oct-14 15:00N 37°04' W 008°26'1 2.9
2019-Oct-14 14:30N 37°04' W 008°24'1 2.8
2019-Oct-14 14:00N 37°04' W 008°22'1 3.0
2019-Oct-14 13:30N 37°04' W 008°20'2 3.7
2019-Oct-14 13:00N 37°02' W 008°20'2 4.4
2019-Oct-14 12:30N 36°59' W 008°20'2 4.4
2019-Oct-14 12:00N 36°57' W 008°20'2 4.5
2019-Oct-14 11:30N 36°55' W 008°20'2 3.2
2019-Oct-14 11:00N 36°55' W 008°18'3 3.1
2019-Oct-14 10:11N 36°57' W 008°17'1 4.3
2019-Oct-14 09:59N 36°58' W 008°17'2 4.3
2019-Oct-14 09:30N 36°60' W 008°17'2 4.3
2019-Oct-14 09:00N 37°02' W 008°17'2 3.6
2019-Oct-14 08:30N 37°04' W 008°17'4 7.6
2019-Oct-14 08:00N 37°04' W 008°22'511.0
2019-Oct-14 07:30N 37°05' W 008°28'4 7.8
2019-Oct-14 07:00N 37°08' W 008°32'0 0.4
2019-Oct-14 06:30N 37°07' W 008°32'0 0.0
2019-Oct-14 06:00N 37°07' W 008°32'0 0.0
2019-Oct-14 05:30N 37°07' W 008°32'0 0.0
2019-Oct-14 04:54N 37°07' W 008°32'0 0.0
2019-Oct-14 04:24N 37°07' W 008°32'0 0.0
2019-Oct-14 04:00N 37°07' W 008°32'0 0.0
2019-Oct-14 03:30N 37°07' W 008°32'0 0.0
2019-Oct-14 02:54N 37°07' W 008°32'0 0.0
2019-Oct-14 02:30N 37°07' W 008°32'0 0.0
2019-Oct-14 01:57N 37°07' W 008°32'0 0.0
2019-Oct-14 01:30N 37°07' W 008°32'0 0.0
2019-Oct-14 01:00N 37°07' W 008°32'0 0.0
2019-Oct-14 00:24N 37°07' W 008°32'0 0.0
2019-Oct-14 00:00N 37°07' W 008°32'0 0.0
2019-Oct-13 23:24N 37°07' W 008°32'0 0.0
2019-Oct-13 22:54N 37°07' W 008°32'0 0.0
2019-Oct-13 22:30N 37°07' W 008°32'0 0.0
2019-Oct-13 22:00N 37°07' W 008°32'0 0.0
2019-Oct-13 21:30N 37°07' W 008°32'0 0.0
2019-Oct-13 21:00N 37°07' W 008°32'0 0.0
2019-Oct-13 20:12N 37°07' W 008°32'0 0.0
2019-Oct-13 19:48N 37°07' W 008°32'0 0.0
2019-Oct-13 19:30N 37°07' W 008°32'0 0.0
2019-Oct-13 19:00N 37°07' W 008°32'0 0.0
2019-Oct-13 18:30N 37°07' W 008°32'0 0.0
2019-Oct-13 18:00N 37°07' W 008°32'0 0.0
2019-Oct-13 17:30N 37°07' W 008°32'0 0.0
2019-Oct-13 17:00N 37°07' W 008°32'0 0.0
2019-Oct-13 16:30N 37°07' W 008°32'0 0.0
2019-Oct-13 16:00N 37°07' W 008°32'0 0.0
2019-Oct-13 15:30N 37°07' W 008°32'0 0.0
2019-Oct-13 14:54N 37°07' W 008°32'0 0.0
2019-Oct-13 14:24N 37°07' W 008°32'0 0.0
2019-Oct-13 14:00N 37°07' W 008°32'0 0.0
2019-Oct-13 13:18N 37°07' W 008°32'0 0.0
2019-Oct-13 13:00N 37°07' W 008°32'0 0.0
2019-Oct-13 12:30N 37°07' W 008°32'0 0.0
2019-Oct-13 12:00N 37°07' W 008°32'0 0.0
2019-Oct-13 11:30N 37°07' W 008°32'0 0.0
2019-Oct-13 11:00N 37°07' W 008°32'0 0.0
2019-Oct-13 10:30N 37°07' W 008°32'0 0.0
2019-Oct-13 10:00N 37°07' W 008°32'0 0.0
2019-Oct-13 09:18N 37°07' W 008°32'0 0.0
2019-Oct-13 08:54N 37°07' W 008°32'0 0.0
2019-Oct-13 08:24N 37°07' W 008°32'0 0.0
2019-Oct-13 07:42N 37°07' W 008°32'0 0.0
2019-Oct-13 07:30N 37°07' W 008°32'0 0.0
2019-Oct-13 07:00N 37°07' W 008°32'0 0.0
2019-Oct-13 06:30N 37°07' W 008°32'0 0.0
2019-Oct-13 06:00N 37°07' W 008°32'0 0.0
2019-Oct-13 05:30N 37°07' W 008°32'0 0.0
2019-Oct-13 05:00N 37°07' W 008°32'0 0.0
2019-Oct-13 04:30N 37°07' W 008°32'0 0.0
2019-Oct-13 03:54N 37°07' W 008°32'0 0.0
2019-Oct-13 03:30N 37°07' W 008°32'0 0.0
2019-Oct-13 03:00N 37°07' W 008°32'0 0.0
2019-Oct-13 02:30N 37°07' W 008°32'0 0.0
2019-Oct-13 02:00N 37°07' W 008°32'0 0.0
2019-Oct-13 01:30N 37°07' W 008°32'0 0.0
2019-Oct-13 01:00N 37°07' W 008°32'0 0.0
2019-Oct-13 00:30N 37°07' W 008°32'0 0.0
2019-Oct-13 00:00N 37°07' W 008°32'0 0.0
2019-Oct-12 23:30N 37°07' W 008°32'0 0.0
2019-Oct-12 22:54N 37°07' W 008°32'0 0.0
2019-Oct-12 22:30N 37°07' W 008°32'0 0.0
2019-Oct-12 21:48N 37°07' W 008°32'0 0.0
2019-Oct-12 21:24N 37°07' W 008°32'0 0.0
2019-Oct-12 21:00N 37°07' W 008°32'0 0.0
2019-Oct-12 20:30N 37°07' W 008°32'0 0.0
2019-Oct-12 19:54N 37°07' W 008°32'0 0.0
2019-Oct-12 19:30N 37°07' W 008°32'0 0.0
2019-Oct-12 19:00N 37°07' W 008°32'0 0.0
2019-Oct-12 18:30N 37°07' W 008°32'0 0.4
2019-Oct-12 18:01N 37°07' W 008°31'5 9.1
2019-Oct-12 17:30N 37°04' W 008°36'510.5
2019-Oct-12 17:00N 37°02' W 008°42'4 8.1
2019-Oct-12 16:30N 36°60' W 008°46'2 3.4
2019-Oct-12 16:00N 36°59' W 008°48'2 4.6
2019-Oct-12 15:30N 36°58' W 008°51'2 4.3
2019-Oct-12 15:00N 36°57' W 008°53'2 4.7
2019-Oct-12 14:30N 36°60' W 008°53'1 1.2
2019-Oct-12 13:50N 36°59' W 008°52'2 4.8
2019-Oct-12 13:24N 36°57' W 008°51'3 4.7
2019-Oct-12 12:40N 36°54' W 008°50'1 4.4
2019-Oct-12 12:30N 36°53' W 008°50'3 3.5
2019-Oct-12 11:32N 36°52' W 008°46'0 4.2
2019-Oct-12 11:30N 36°52' W 008°46'2 4.2
2019-Oct-12 11:01N 36°54' W 008°46'2 3.9
2019-Oct-12 10:30N 36°56' W 008°47'2 4.0
2019-Oct-12 10:00N 36°58' W 008°48'2 4.1
2019-Oct-12 09:30N 36°60' W 008°48'2 4.2
2019-Oct-12 09:00N 37°02' W 008°49'8 7.1
2019-Oct-12 07:56N 37°03' W 008°40'511.2
2019-Oct-12 07:30N 37°05' W 008°34'3 4.2
2019-Oct-12 06:46N 37°07' W 008°32'0 0.0
2019-Oct-12 06:19N 37°07' W 008°32'0 0.0
2019-Oct-12 06:00N 37°07' W 008°32'0 0.0
2019-Oct-12 05:30N 37°07' W 008°32'0 0.0
2019-Oct-12 05:00N 37°07' W 008°32'0 0.0
2019-Oct-12 04:30N 37°07' W 008°32'0 0.0
2019-Oct-12 04:00N 37°07' W 008°32'0 0.0
2019-Oct-12 03:30N 37°07' W 008°32'0 0.0
2019-Oct-12 03:00N 37°07' W 008°32'0 0.0
2019-Oct-12 02:30N 37°07' W 008°32'0 0.0
2019-Oct-12 02:00N 37°07' W 008°32'0 0.0
2019-Oct-12 01:30N 37°07' W 008°32'0 0.0
2019-Oct-12 01:00N 37°07' W 008°32'0 0.0
2019-Oct-12 00:05N 37°07' W 008°32'0 0.0
2019-Oct-11 23:56N 37°07' W 008°32'0 0.0
2019-Oct-11 23:23N 37°07' W 008°32'0 0.0
2019-Oct-11 23:00N 37°07' W 008°32'0 0.0
2019-Oct-11 22:30N 37°07' W 008°32'0 0.0
2019-Oct-11 21:32N 37°07' W 008°32'0 0.0
2019-Oct-11 21:30N 37°07' W 008°32'0 0.0
2019-Oct-11 20:33N 37°07' W 008°32'0 0.0
2019-Oct-11 20:28N 37°07' W 008°32'0 0.0
2019-Oct-11 19:57N 37°07' W 008°32'0 0.0
2019-Oct-11 19:28N 37°07' W 008°32'0 0.0
2019-Oct-11 19:00N 37°07' W 008°32'0 0.0
2019-Oct-11 18:24N 37°07' W 008°32'0 0.0
2019-Oct-11 18:00N 37°07' W 008°32'0 0.0
2019-Oct-11 17:30N 37°07' W 008°32'0 0.0
2019-Oct-11 17:00N 37°07' W 008°32'0 0.0
2019-Oct-11 16:31N 37°07' W 008°32'3 5.3
2019-Oct-11 16:01N 37°05' W 008°34'510.3
2019-Oct-11 15:31N 37°04' W 008°40'4 8.0
2019-Oct-11 15:00N 37°04' W 008°45'1 2.5
2019-Oct-11 14:30N 37°03' W 008°45'2 3.3
2019-Oct-11 14:00N 37°01' W 008°44'1 1.9
2019-Oct-11 13:20N 36°60' W 008°44'1 3.2
2019-Oct-11 12:58N 36°59' W 008°43'2 4.8
2019-Oct-11 12:30N 36°56' W 008°43'2 4.3
2019-Oct-11 12:00N 36°54' W 008°42'2 4.3
2019-Oct-11 11:30N 36°52' W 008°42'2 4.3
2019-Oct-11 10:57N 36°52' W 008°39'2 4.1
2019-Oct-11 10:30N 36°54' W 008°39'2 4.2
2019-Oct-11 10:00N 36°56' W 008°39'2 4.3
2019-Oct-11 09:30N 36°59' W 008°39'2 3.9
2019-Oct-11 09:00N 37°00' W 008°40'2 3.9
2019-Oct-11 08:30N 37°02' W 008°40'2 3.8
2019-Oct-11 08:00N 37°04' W 008°40'4 7.2
2019-Oct-11 07:30N 37°05' W 008°35'4 7.9
2019-Oct-11 07:00N 37°07' W 008°32'0 0.0
2019-Oct-11 06:18N 37°07' W 008°32'0 0.0
2019-Oct-11 05:45N 37°07' W 008°32'0 0.0
2019-Oct-11 04:51N 37°07' W 008°32'0 0.0
2019-Oct-11 04:15N 37°07' W 008°32'0 0.0
2019-Oct-11 03:51N 37°07' W 008°32'0 0.0
2019-Oct-11 03:15N 37°07' W 008°32'0 0.0
2019-Oct-11 02:57N 37°07' W 008°32'0 0.0
2019-Oct-11 02:21N 37°07' W 008°32'0 0.0
2019-Oct-11 01:57N 37°07' W 008°32'0 0.0
2019-Oct-11 01:27N 37°07' W 008°32'0 0.0
2019-Oct-11 00:48N 37°07' W 008°32'0 0.0
2019-Oct-11 00:21N 37°07' W 008°32'0 0.0
2019-Oct-11 00:00N 37°07' W 008°32'0 0.0
2019-Oct-10 23:30N 37°07' W 008°32'0 0.0
2019-Oct-10 22:45N 37°07' W 008°32'0 0.0
2019-Oct-10 22:27N 37°07' W 008°32'0 0.0
2019-Oct-10 21:51N 37°07' W 008°32'0 0.0
2019-Oct-10 21:27N 37°07' W 008°32'0 0.0
2019-Oct-10 20:51N 37°07' W 008°32'0 0.0
2019-Oct-10 20:18N 37°07' W 008°32'0 0.0
2019-Oct-10 19:45N 37°07' W 008°32'0 0.0
2019-Oct-10 19:21N 37°07' W 008°32'0 0.0
2019-Oct-10 18:17N 37°07' W 008°32'1 4.7
2019-Oct-10 18:00N 37°06' W 008°32'4 8.9
2019-Oct-10 17:30N 37°02' W 008°34'3 5.2
2019-Oct-10 16:59N 36°59' W 008°34'2 4.6
2019-Oct-10 16:31N 36°60' W 008°31'2 4.8
2019-Oct-10 16:00N 36°60' W 008°28'2 4.0
2019-Oct-10 15:30N 37°02' W 008°27'2 4.3
2019-Oct-10 15:00N 37°01' W 008°30'2 4.4
2019-Oct-10 14:30N 37°01' W 008°32'2 4.5
2019-Oct-10 14:00N 37°01' W 008°35'2 4.4
2019-Oct-10 13:30N 37°01' W 008°38'2 4.5
2019-Oct-10 13:00N 37°00' W 008°41'2 4.6
2019-Oct-10 12:31N 37°00' W 008°44'2 4.3
2019-Oct-10 12:01N 36°60' W 008°46'2 4.1
2019-Oct-10 11:31N 37°01' W 008°48'7 4.4
2019-Oct-10 09:55N 37°02' W 008°40'3 4.5
2019-Oct-10 09:18N 37°03' W 008°36'1 4.5
2019-Oct-10 09:01N 37°03' W 008°35'2 4.5
2019-Oct-10 08:29N 37°03' W 008°32'2 4.4
2019-Oct-10 07:59N 37°04' W 008°29'1 1.8
2019-Oct-10 07:29N 37°04' W 008°30'4 2.7
2019-Oct-10 06:09N 37°07' W 008°32'0 0.0
2019-Oct-10 05:00N 37°07' W 008°32'0 0.0
2019-Oct-10 03:27N 37°07' W 008°32'0 0.0
2019-Oct-10 02:54N 37°07' W 008°32'0 0.0
2019-Oct-10 01:51N 37°07' W 008°32'0 0.0
2019-Oct-10 01:12N 37°07' W 008°32'0 0.0
2019-Oct-10 00:54N 37°07' W 008°32'0 0.0
2019-Oct-10 00:06N 37°07' W 008°32'0 0.0
2019-Oct-09 23:24N 37°07' W 008°32'0 0.0
2019-Oct-09 22:54N 37°07' W 008°32'0 0.0
2019-Oct-09 22:06N 37°07' W 008°32'0 0.0
2019-Oct-09 21:48N 37°07' W 008°32'0 0.0
2019-Oct-09 21:18N 37°07' W 008°32'0 0.0
2019-Oct-09 20:36N 37°07' W 008°32'0 0.0
2019-Oct-09 20:24N 37°07' W 008°32'0 0.0
2019-Oct-09 20:00N 37°07' W 008°32'0 0.0
2019-Oct-09 19:18N 37°07' W 008°32'0 0.0
2019-Oct-09 19:00N 37°07' W 008°32'0 0.0
2019-Oct-09 18:18N 37°07' W 008°32'0 0.0
2019-Oct-09 18:00N 37°07' W 008°32'0 0.0
2019-Oct-09 17:16N 37°07' W 008°32'1 2.6
2019-Oct-09 17:00N 37°07' W 008°32'4 8.1
2019-Oct-09 16:30N 37°03' W 008°33'4 7.1
2019-Oct-09 16:00N 36°59' W 008°33'2 4.7
2019-Oct-09 15:30N 36°59' W 008°36'3 5.0
2019-Oct-09 14:59N 36°59' W 008°39'2 4.9
2019-Oct-09 14:30N 36°58' W 008°42'2 4.7
2019-Oct-09 14:00N 36°58' W 008°45'2 4.6
2019-Oct-09 13:30N 36°57' W 008°48'2 4.2
2019-Oct-09 13:00N 36°56' W 008°50'2 3.7
2019-Oct-09 12:27N 36°55' W 008°52'1 1.7
2019-Oct-09 12:00N 36°55' W 008°53'3 4.9
2019-Oct-09 11:24N 36°58' W 008°53'2 4.7
2019-Oct-09 11:00N 36°60' W 008°53'2 4.4
2019-Oct-09 10:30N 37°01' W 008°51'7 4.5
2019-Oct-09 08:57N 37°03' W 008°43'2 3.8
2019-Oct-09 08:30N 37°04' W 008°41'3 4.5
2019-Oct-09 07:45N 37°04' W 008°36'311.1
2019-Oct-09 07:28N 37°06' W 008°33'2 3.9
2019-Oct-09 06:56N 37°07' W 008°32'0 0.0
2019-Oct-09 06:26N 37°07' W 008°32'0 0.0
2019-Oct-09 05:53N 37°07' W 008°32'0 0.0
2019-Oct-09 05:26N 37°07' W 008°32'0 0.0
2019-Oct-09 04:32N 37°07' W 008°32'0 0.0
2019-Oct-09 04:02N 37°07' W 008°32'0 0.0
2019-Oct-09 03:38N 37°07' W 008°32'0 0.0
2019-Oct-09 03:20N 37°07' W 008°32'0 0.0
2019-Oct-09 02:50N 37°07' W 008°32'0 0.0
2019-Oct-09 02:26N 37°07' W 008°32'0 0.0
2019-Oct-09 01:56N 37°07' W 008°32'0 0.0
2019-Oct-09 00:50N 37°07' W 008°32'0 0.0
2019-Oct-09 00:30N 37°07' W 008°32'0 0.0
2019-Oct-08 23:56N 37°07' W 008°32'0 0.0
2019-Oct-08 23:26N 37°07' W 008°32'0 0.0
2019-Oct-08 22:47N 37°07' W 008°32'0 0.0
2019-Oct-08 22:26N 37°07' W 008°32'0 0.0
2019-Oct-08 21:44N 37°07' W 008°32'0 0.0
2019-Oct-08 20:39N 37°07' W 008°32'0 0.0
2019-Oct-08 20:27N 37°07' W 008°32'0 0.0
2019-Oct-08 20:00N 37°07' W 008°32'0 0.0
2019-Oct-08 19:31N 37°07' W 008°32'0 0.0
2019-Oct-08 18:52N 37°07' W 008°32'0 0.0
2019-Oct-08 18:21N 37°07' W 008°32'0 0.5
2019-Oct-08 18:00N 37°08' W 008°32'3 6.0
2019-Oct-08 17:30N 37°05' W 008°30'1 2.1
2019-Oct-08 17:00N 37°05' W 008°31'2 4.7
2019-Oct-08 16:30N 37°05' W 008°34'2 4.6
2019-Oct-08 15:58N 37°04' W 008°37'1 2.6
2019-Oct-08 15:28N 37°05' W 008°38'1 2.0
2019-Oct-08 15:01N 37°06' W 008°37'3 4.5
2019-Oct-08 14:26N 37°04' W 008°37'2 4.3
2019-Oct-08 14:00N 37°02' W 008°37'2 4.6
2019-Oct-08 13:30N 36°59' W 008°36'2 4.6
2019-Oct-08 12:58N 36°57' W 008°36'2 4.3
2019-Oct-08 12:30N 36°55' W 008°36'2 3.1
2019-Oct-08 11:54N 36°53' W 008°35'1 1.3
2019-Oct-08 11:30N 36°54' W 008°36'4 4.6
2019-Oct-08 10:31N 36°55' W 008°30'0 1.0
2019-Oct-08 10:31N 36°55' W 008°30'2 3.9
2019-Oct-08 10:00N 36°57' W 008°31'2 4.5
2019-Oct-08 09:30N 36°59' W 008°31'2 4.8
2019-Oct-08 09:01N 37°01' W 008°31'4 4.7
2019-Oct-08 08:11N 37°05' W 008°31'1 4.6
2019-Oct-08 08:00N 37°06' W 008°31'1 0.8
2019-Oct-08 07:02N 37°07' W 008°32'1 0.4
2019-Oct-08 05:43N 37°07' W 008°32'0 0.0
2019-Oct-08 05:25N 37°07' W 008°32'0 0.0
2019-Oct-08 04:55N 37°07' W 008°32'0 0.0
2019-Oct-08 04:25N 37°07' W 008°32'0 0.0
2019-Oct-08 03:55N 37°07' W 008°32'0 0.0
2019-Oct-08 03:25N 37°07' W 008°32'0 0.0
2019-Oct-08 02:58N 37°07' W 008°32'0 0.0
2019-Oct-08 02:25N 37°07' W 008°32'0 0.0
2019-Oct-08 01:58N 37°07' W 008°32'0 0.0
2019-Oct-07 23:49N 37°07' W 008°32'0 0.0
2019-Oct-07 22:44N 37°07' W 008°32'0 0.0
2019-Oct-07 22:04N 37°07' W 008°32'0 0.0
2019-Oct-07 21:46N 37°07' W 008°32'0 0.0
2019-Oct-07 21:22N 37°07' W 008°32'0 0.0
2019-Oct-07 20:04N 37°07' W 008°32'0 0.0
2019-Oct-07 19:55N 37°07' W 008°32'0 0.0
2019-Oct-07 18:58N 37°07' W 008°32'0 0.0
2019-Oct-07 18:30N 37°07' W 008°32'2 5.0
2019-Oct-07 18:00N 37°05' W 008°33'611.6
2019-Oct-07 17:31N 37°03' W 008°39'  

Dump ship's entire track history